createdAt,value
2018-12-19T00:00:58.641Z,78.60
2018-12-19T00:03:26.316Z,78.60
2018-12-19T00:05:53.991Z,78.70
2018-12-19T00:10:49.632Z,78.70
2018-12-19T00:13:19.316Z,78.50
2018-12-19T00:15:46.973Z,78.40
2018-12-19T00:20:42.427Z,78.50
2018-12-19T00:23:10.011Z,78.60
2018-12-19T00:25:37.735Z,78.70
2018-12-19T00:28:05.389Z,78.80
2018-12-19T00:35:28.473Z,78.60
2018-12-19T00:37:56.089Z,78.60
2018-12-19T00:40:23.941Z,78.60
2018-12-19T00:42:51.682Z,79.30
2018-12-19T00:45:20.134Z,78.90
2018-12-19T00:47:48.327Z,78.90
2018-12-19T00:52:43.504Z,78.90
2018-12-19T00:55:11.285Z,78.80
2018-12-19T01:07:31.617Z,79.10
2018-12-19T01:12:27.038Z,79.30
2018-12-19T01:19:50.078Z,79.20
2018-12-19T01:24:46.693Z,79.30
2018-12-19T01:27:14.288Z,79.40
2018-12-19T01:34:37.712Z,79.60
2018-12-19T01:37:05.343Z,79.50
2018-12-19T01:44:28.738Z,79.60
2018-12-19T01:46:56.448Z,79.70
2018-12-19T01:49:24.075Z,79.80
2018-12-19T02:01:42.528Z,80.10
2018-12-19T02:04:10.118Z,80.70
2018-12-19T02:09:08.534Z,80.30
2018-12-19T02:14:03.895Z,80.30
2018-12-19T02:16:31.568Z,80.30
2018-12-19T02:18:59.259Z,80.30
2018-12-19T02:28:49.898Z,80.20
2018-12-19T02:43:37.079Z,80.60
2018-12-19T02:46:04.944Z,80.70
2018-12-19T02:48:32.606Z,80.70
2018-12-19T02:51:01.263Z,80.70
2018-12-19T02:53:29.131Z,80.70
2018-12-19T02:55:57.532Z,80.70
2018-12-19T02:58:25.115Z,80.70
2018-12-19T03:00:53.187Z,80.80
2018-12-19T03:03:20.771Z,80.60
2018-12-19T03:05:48.584Z,80.70
2018-12-19T03:08:16.322Z,80.80
2018-12-19T03:10:44.044Z,80.80
2018-12-19T03:13:11.649Z,80.80
2018-12-19T03:18:07.145Z,80.80
2018-12-19T03:20:34.758Z,80.90
2018-12-19T03:23:02.574Z,80.90
2018-12-19T03:27:57.798Z,80.80
2018-12-19T03:30:25.561Z,81.50
2018-12-19T03:32:53.168Z,80.90
2018-12-19T03:35:20.904Z,81.00
2018-12-19T03:40:17.509Z,81.00
2018-12-19T03:45:13.019Z,81.00
2018-12-19T03:47:41.728Z,81.00
2018-12-19T03:52:37.330Z,81.00
2018-12-19T03:57:33.039Z,81.00
2018-12-19T04:00:00.758Z,83.80
2018-12-19T04:02:28.352Z,81.20
2018-12-19T04:04:56.136Z,81.30
2018-12-19T04:07:24.263Z,81.50
2018-12-19T04:09:57.754Z,81.60
2018-12-19T04:12:21.494Z,81.60
2018-12-19T04:14:49.641Z,81.60
2018-12-19T04:17:17.671Z,81.80
2018-12-19T04:19:45.349Z,82.40
2018-12-19T04:22:13.317Z,81.80
2018-12-19T04:24:40.928Z,81.80
2018-12-19T04:27:08.924Z,81.90
2018-12-19T04:29:36.939Z,81.90
2018-12-19T04:32:04.791Z,81.90
2018-12-19T04:34:32.458Z,81.90
2018-12-19T04:37:00.204Z,81.90
2018-12-19T04:39:27.834Z,81.90
2018-12-19T04:41:55.499Z,82.10
2018-12-19T04:44:23.298Z,82.20
2018-12-19T04:46:50.989Z,82.30
2018-12-19T04:49:18.624Z,82.20
2018-12-19T04:51:46.681Z,82.30
2018-12-19T04:54:14.403Z,82.30
2018-12-19T04:56:41.980Z,82.40
2018-12-19T04:59:10.738Z,82.40
2018-12-19T05:01:38.364Z,82.40
2018-12-19T05:04:06.019Z,82.40
2018-12-19T05:06:34.060Z,82.50
2018-12-19T05:09:01.663Z,83.10
2018-12-19T05:11:29.364Z,82.60
2018-12-19T05:13:57.160Z,82.70
2018-12-19T05:16:24.845Z,82.70
2018-12-19T05:18:52.425Z,82.60
2018-12-19T05:21:20.265Z,82.80
2018-12-19T05:23:48.072Z,83.40
2018-12-19T05:26:15.756Z,82.90
2018-12-19T05:28:43.485Z,82.90
2018-12-19T05:33:39.686Z,82.80
2018-12-19T05:36:07.432Z,82.80
2018-12-19T05:38:35.008Z,82.80
2018-12-19T05:41:02.774Z,82.80
2018-12-19T05:43:30.534Z,82.80
2018-12-19T05:45:58.438Z,83.40
2018-12-19T05:48:26.024Z,82.80
2018-12-19T05:50:53.722Z,82.70
2018-12-19T05:53:21.369Z,83.00
2018-12-19T05:55:49.383Z,82.70
2018-12-19T05:58:17.539Z,82.80
2018-12-19T06:00:45.188Z,82.70
2018-12-19T06:05:41.257Z,82.80
2018-12-19T06:08:08.923Z,82.80
2018-12-19T06:10:36.656Z,82.80
2018-12-19T06:15:32.182Z,82.80
2018-12-19T06:18:00.103Z,82.80
2018-12-19T06:20:27.876Z,82.90
2018-12-19T06:22:55.516Z,82.90
2018-12-19T06:25:23.335Z,83.00
2018-12-19T06:27:51.486Z,83.60
2018-12-19T06:30:20.772Z,83.10
2018-12-19T06:32:49.040Z,83.10
2018-12-19T06:35:16.855Z,83.10
2018-12-19T06:37:44.570Z,83.80
2018-12-19T06:40:13.200Z,83.10
2018-12-19T06:42:41.911Z,83.20
2018-12-19T06:45:09.779Z,84.00
2018-12-19T06:47:38.186Z,83.30
2018-12-19T06:50:07.579Z,83.40
2018-12-19T06:52:35.161Z,83.20
2018-12-19T06:55:02.923Z,83.30
2018-12-19T06:57:30.697Z,83.40
2018-12-19T06:59:58.374Z,83.40
2018-12-19T07:02:25.964Z,84.10
2018-12-19T07:09:49.691Z,83.50
2018-12-19T07:12:18.634Z,83.40
2018-12-19T07:14:46.390Z,83.50
2018-12-19T07:17:14.361Z,83.60
2018-12-19T07:19:42.178Z,83.60
2018-12-19T07:22:09.768Z,83.70
2018-12-19T07:27:05.119Z,83.70
2018-12-19T07:32:00.350Z,83.80
2018-12-19T07:41:51.038Z,83.80
2018-12-19T07:46:48.514Z,84.10
2018-12-19T07:49:16.266Z,84.10
2018-12-19T07:51:43.881Z,84.10
2018-12-19T07:54:12.113Z,84.30
2018-12-19T07:56:39.818Z,84.20
2018-12-19T07:59:07.476Z,84.20
2018-12-19T08:01:35.131Z,84.20
2018-12-19T08:04:03.063Z,84.30
2018-12-19T08:08:58.297Z,84.30
2018-12-19T08:11:26.135Z,84.50
2018-12-19T08:13:54.055Z,85.10
2018-12-19T08:31:09.966Z,84.30
2018-12-19T08:33:37.853Z,84.30
2018-12-19T08:45:56.582Z,84.60
2018-12-19T08:50:51.957Z,84.60
2018-12-19T08:53:19.587Z,84.60
2018-12-19T08:58:15.682Z,83.50
2018-12-19T09:00:43.262Z,84.90
2018-12-19T09:03:11.749Z,84.90
2018-12-19T09:05:39.404Z,84.90
2018-12-19T09:10:34.763Z,84.90
2018-12-19T09:13:02.396Z,84.90
2018-12-19T09:18:39.942Z,85.00
2018-12-19T09:21:07.813Z,85.10
2018-12-19T09:23:35.408Z,85.10
2018-12-19T09:26:03.019Z,85.20
2018-12-19T09:28:30.863Z,85.20
2018-12-19T09:30:58.468Z,85.10
2018-12-19T09:33:27.480Z,85.10
2018-12-19T09:35:55.685Z,85.20
2018-12-19T09:40:50.912Z,85.40
2018-12-19T09:43:19.175Z,85.50
2018-12-19T09:45:46.819Z,85.40
2018-12-19T09:48:15.456Z,85.40
2018-12-19T09:50:43.271Z,85.40
2018-12-19T09:53:10.854Z,85.40
2018-12-19T09:55:38.462Z,85.40
2018-12-19T09:58:06.285Z,85.60
2018-12-19T10:03:01.469Z,85.70
2018-12-19T10:07:57.519Z,85.70
2018-12-19T10:15:20.869Z,85.60
2018-12-19T10:17:48.497Z,85.60
2018-12-19T10:20:16.392Z,85.80
2018-12-19T10:22:44.142Z,86.40
2018-12-19T10:30:10.796Z,85.40
2018-12-19T10:32:40.351Z,85.10
2018-12-19T10:35:09.855Z,85.10
2018-12-19T10:37:37.598Z,84.90
2018-12-19T10:40:08.014Z,84.70
2018-12-19T10:42:36.151Z,84.70
2018-12-19T10:45:05.491Z,84.30
2018-12-19T10:47:33.186Z,84.50
2018-12-19T10:50:01.009Z,84.70
2018-12-19T10:54:56.240Z,84.60
2018-12-19T10:57:24.030Z,84.50
2018-12-19T10:59:51.606Z,84.70
2018-12-19T11:02:19.573Z,85.00
2018-12-19T11:04:48.676Z,85.30
2018-12-19T11:07:16.526Z,85.00
2018-12-19T11:09:45.333Z,85.70
2018-12-19T11:12:14.001Z,84.80
2018-12-19T11:14:41.656Z,84.80
2018-12-19T11:17:09.481Z,84.80
2018-12-19T11:19:37.395Z,85.40
2018-12-19T11:22:07.003Z,84.30
2018-12-19T11:24:34.594Z,84.50
2018-12-19T11:27:02.465Z,84.70
2018-12-19T11:29:30.116Z,85.00
2018-12-19T11:31:57.682Z,84.90
2018-12-19T11:34:25.394Z,84.80
2018-12-19T11:36:53.073Z,84.80
2018-12-19T11:39:20.661Z,85.00
2018-12-19T11:41:48.885Z,85.00
2018-12-19T11:44:16.744Z,84.80
2018-12-19T11:46:44.339Z,84.60
2018-12-19T11:49:12.047Z,84.60
2018-12-19T11:51:39.861Z,85.20
2018-12-19T11:54:07.496Z,84.70
2018-12-19T11:59:02.839Z,84.70
2018-12-19T12:03:58.237Z,84.90
2018-12-19T12:06:25.881Z,84.60
2018-12-19T12:08:53.548Z,84.60
2018-12-19T12:11:21.326Z,84.60
2018-12-19T12:13:49.361Z,84.90
2018-12-19T12:16:17.008Z,84.90
2018-12-19T12:18:45.138Z,84.90
2018-12-19T12:23:47.158Z,85.10
2018-12-19T12:28:38.270Z,85.30
2018-12-19T12:31:05.887Z,85.10
2018-12-19T12:33:33.567Z,84.90
2018-12-19T12:36:01.259Z,84.70
2018-12-19T12:38:34.041Z,84.80
2018-12-19T12:40:58.651Z,84.70
2018-12-19T12:43:26.242Z,84.50
2018-12-19T12:45:53.878Z,84.60
2018-12-19T12:48:21.565Z,84.70
2018-12-19T12:50:49.942Z,85.30
2018-12-19T12:53:19.593Z,85.00
2018-12-19T12:55:47.942Z,85.10
2018-12-19T12:58:17.479Z,85.30
2018-12-19T13:00:45.069Z,85.40
2018-12-19T13:03:12.907Z,85.40
2018-12-19T13:05:40.520Z,85.30
2018-12-19T13:08:08.185Z,85.20
2018-12-19T13:10:36.376Z,85.20
2018-12-19T13:15:37.592Z,85.10
2018-12-19T13:18:05.213Z,85.00
2018-12-19T13:20:32.908Z,85.00
2018-12-19T13:23:00.627Z,84.90
2018-12-19T13:25:28.318Z,84.90
2018-12-19T13:27:56.121Z,84.80
2018-12-19T13:30:23.866Z,84.90
2018-12-19T13:32:51.472Z,84.70
2018-12-19T13:37:47.797Z,84.80
2018-12-19T13:40:16.592Z,84.70
2018-12-19T13:45:12.096Z,84.60
2018-12-19T13:52:35.224Z,84.70
2018-12-19T13:55:02.958Z,84.80
2018-12-19T13:57:30.550Z,84.70
2018-12-19T14:02:25.931Z,85.00
2018-12-19T14:04:53.512Z,84.60
2018-12-19T14:09:49.464Z,84.80
2018-12-19T14:19:43.555Z,84.70
2018-12-19T14:22:11.355Z,84.80
2018-12-19T14:27:06.583Z,85.00
2018-12-19T14:29:34.485Z,85.10
2018-12-19T14:36:57.500Z,85.30
2018-12-19T14:39:25.192Z,85.50
2018-12-19T14:41:52.788Z,85.00
2018-12-19T14:44:20.475Z,85.00
2018-12-19T14:46:49.333Z,85.00
2018-12-19T14:49:18.531Z,84.90
2018-12-19T14:51:46.333Z,85.00
2018-12-19T14:54:13.992Z,85.20
2018-12-19T14:56:41.649Z,85.70
2018-12-19T14:59:09.432Z,85.80
2018-12-19T15:04:04.646Z,85.70
2018-12-19T15:06:32.425Z,85.80
2018-12-19T15:09:00.027Z,86.10
2018-12-19T15:11:27.630Z,85.80
2018-12-19T15:13:55.442Z,85.70
2018-12-19T15:16:23.132Z,87.00
2018-12-19T15:18:50.830Z,85.80
2018-12-19T15:21:18.618Z,85.80
2018-12-19T15:23:46.233Z,85.60
2018-12-19T15:26:13.858Z,85.70
2018-12-19T15:31:09.190Z,85.60
2018-12-19T15:33:36.821Z,85.70
2018-12-19T15:36:04.790Z,85.50
2018-12-19T15:38:32.551Z,85.70
2018-12-19T15:41:00.144Z,85.70
2018-12-19T15:43:27.904Z,86.00
2018-12-19T15:45:55.585Z,86.10
2018-12-19T15:53:19.437Z,86.10
2018-12-19T15:55:47.186Z,85.90
2018-12-19T16:00:42.916Z,86.50
2018-12-19T16:03:10.560Z,86.00
2018-12-19T16:05:38.360Z,86.10
2018-12-19T16:10:35.521Z,86.30
2018-12-19T16:13:03.236Z,86.10
2018-12-19T16:17:58.477Z,86.40
2018-12-19T16:20:26.283Z,86.40
2018-12-19T16:22:53.923Z,86.30
2018-12-19T16:32:44.753Z,86.60
2018-12-19T16:35:12.470Z,86.30
2018-12-19T16:37:40.144Z,86.10
2018-12-19T16:40:07.860Z,86.20
2018-12-19T16:42:35.620Z,86.20
2018-12-19T16:45:06.208Z,86.40
2018-12-19T16:47:47.315Z,86.20
2018-12-19T16:50:16.083Z,86.30
2018-12-19T16:55:29.149Z,86.40
2018-12-19T17:00:28.452Z,86.50
2018-12-19T17:02:56.115Z,86.40
2018-12-19T17:05:23.762Z,86.30
2018-12-19T17:10:19.360Z,86.30
2018-12-19T17:15:17.256Z,86.40
2018-12-19T17:17:45.813Z,86.10
2018-12-19T17:20:16.426Z,86.20
2018-12-19T17:27:41.454Z,86.20
2018-12-19T17:30:11.122Z,86.30
2018-12-19T17:32:39.700Z,86.40
2018-12-19T17:35:07.364Z,86.30
2018-12-19T17:37:36.021Z,86.30
2018-12-19T17:40:05.588Z,86.40
2018-12-19T17:42:34.316Z,86.20
2018-12-19T17:45:03.008Z,86.20
2018-12-19T17:52:29.051Z,86.20
2018-12-19T17:54:58.433Z,86.10
2018-12-19T17:59:55.675Z,86.40
2018-12-19T18:04:52.912Z,86.50
2018-12-19T18:09:49.686Z,86.50
2018-12-19T18:12:20.334Z,86.60
2018-12-19T18:14:49.615Z,86.60
2018-12-19T18:17:19.245Z,86.50
2018-12-19T18:19:55.964Z,86.40
2018-12-19T18:22:23.662Z,86.50
2018-12-19T18:24:59.432Z,86.30
2018-12-19T18:27:33.047Z,86.20
2018-12-19T18:32:38.414Z,86.00
2018-12-19T18:35:07.839Z,86.50
2018-12-19T18:40:05.272Z,86.50
2018-12-19T18:47:29.846Z,86.80
2018-12-19T18:52:31.056Z,86.70
2018-12-19T19:02:36.914Z,86.60
2018-12-19T19:05:06.388Z,86.50
2018-12-19T19:07:41.192Z,86.60
2018-12-19T19:10:10.104Z,86.60
2018-12-19T19:12:37.911Z,86.40
2018-12-19T19:15:06.386Z,86.50
2018-12-19T19:20:06.329Z,86.40
2018-12-19T19:22:37.168Z,86.40
2018-12-19T19:25:05.852Z,86.60
2018-12-19T19:27:33.550Z,86.20
2018-12-19T19:32:30.302Z,86.50
2018-12-19T19:34:58.865Z,86.30
2018-12-19T19:39:56.426Z,86.40
2018-12-19T19:42:25.969Z,86.40
2018-12-19T19:44:54.708Z,86.40
2018-12-19T19:47:22.576Z,86.40
2018-12-19T19:52:21.534Z,86.50
2018-12-19T19:54:50.578Z,86.40
2018-12-19T19:57:19.715Z,86.60
2018-12-19T20:02:16.941Z,86.50
2018-12-19T20:04:44.762Z,86.40
2018-12-19T20:07:12.541Z,86.50
2018-12-19T20:09:41.670Z,86.30
2018-12-19T20:19:33.069Z,86.30
2018-12-19T20:24:31.084Z,86.50
2018-12-19T20:26:59.590Z,86.60
2018-12-19T20:31:55.845Z,86.60
2018-12-19T20:34:23.502Z,86.70
2018-12-19T20:44:21.637Z,86.70
2018-12-19T20:46:52.226Z,86.80
2018-12-19T20:56:48.678Z,86.40
2018-12-19T21:01:45.192Z,86.70
2018-12-19T21:11:37.803Z,87.40
2018-12-19T21:19:07.874Z,87.70
2018-12-19T21:24:03.327Z,88.00
2018-12-19T21:26:33.030Z,88.20
2018-12-19T21:29:01.573Z,88.20
2018-12-19T21:31:29.289Z,88.30
2018-12-19T21:33:57.017Z,88.40
2018-12-19T21:36:24.758Z,88.50
2018-12-19T21:41:22.354Z,88.60
2018-12-19T21:48:49.431Z,88.60
2018-12-19T21:53:44.632Z,88.70
2018-12-19T22:03:35.357Z,89.20
2018-12-19T22:06:03.176Z,89.00
2018-12-19T22:08:31.135Z,89.70
2018-12-19T22:10:59.056Z,89.20
2018-12-19T22:15:54.318Z,90.30
2018-12-19T22:25:50.865Z,89.50
2018-12-19T22:30:46.308Z,89.50
2018-12-19T22:33:14.273Z,90.00
2018-12-19T22:40:37.493Z,90.00
2018-12-19T22:45:32.833Z,90.10
2018-12-19T22:50:28.571Z,90.10
2018-12-19T22:52:56.156Z,90.10
2018-12-19T22:55:24.034Z,90.10
2018-12-19T22:57:51.606Z,90.10
2018-12-19T23:02:53.099Z,90.10
2018-12-19T23:05:22.730Z,90.10
2018-12-19T23:07:50.530Z,90.20
2018-12-19T23:10:19.023Z,90.10
2018-12-19T23:12:46.756Z,90.10
2018-12-19T23:15:14.334Z,90.40
2018-12-19T23:20:10.188Z,90.20
2018-12-19T23:22:37.831Z,90.20
2018-12-19T23:25:05.785Z,90.20
2018-12-19T23:27:33.601Z,90.20
2018-12-19T23:30:01.210Z,90.20
2018-12-19T23:34:56.647Z,90.20
2018-12-19T23:39:52.226Z,90.20
2018-12-19T23:44:48.910Z,90.20
2018-12-19T23:47:16.598Z,90.30
2018-12-19T23:49:44.443Z,90.30
2018-12-19T23:52:12.241Z,90.20
2018-12-19T23:54:40.238Z,90.20
2018-12-19T23:57:07.915Z,90.20
2018-12-19T23:59:35.603Z,90.20
